Whitewright, Texas
Current Conditions -  °F | °C
As of 1:55 PM on Sunday 23 Nov 2014 (Local Time) from KGYI Reporting Station
Clear Clear  
Wind Chill: 73°   Ceiling: Unl
Heat Index: 73°   Visibility: 10mi
Dew Point: 46°   Wind: 17mph
Humidity: 38%   Direction: 240°WSW
Pressure: 29.36"   Gusts: 28mph
Location:  33.51°N, 96.39°W
Report Text: KGYI 231955Z AUTO 24015G24KT 10SM CLR 23/08 A2936 RMK AO2 T02300078
Loading
Personal Weather Stations






























Interactive Weather Map New forecast layout! Learn more

10-Day Weather Forecast

Advertisements
Track Severe Weather on mobile